Time;durP1;ratioP1;P1;durP2;ratioP2;P2;SDS_P1;SDS_P2;PMS_P1;PMS_P2;Temp;Humidity;BMP_temperature;BMP_pressure;BME280_temperature;BME280_humidity;BME280_pressure;Samples;Min_cycle;Max_cycle;Signal;HPM_P1;HPM_P2
2023/10/06 00:00:50;;;;;;;12.80;8.90;;;;;;;10.22;100.00;97963.94;110072;1244;59741;-60
2023/10/06 00:03:44;;;;;;;10.80;8.00;;;;;;;10.13;100.00;97966.71;110147;1244;70877;-60
2023/10/06 00:06:22;;;;;;;9.70;8.20;;;;;;;10.08;100.00;97969.51;110118;1244;68360;-60
2023/10/06 00:08:54;;;;;;;11.30;7.80;;;;;;;10.01;100.00;97969.71;110161;1243;69246;-60
2023/10/06 00:11:31;;;;;;;10.30;7.20;;;;;;;9.94;100.00;97971.73;110092;1244;59723;-60
2023/10/06 00:14:15;;;;;;;;;;;;;;;9.89;100.00;97970.45;110156;1241;59702;-60
2023/10/06 00:16:51;;;;;;;10.20;7.00;;;;;;;9.86;100.00;97969.66;110154;1241;70646;-60
2023/10/06 00:19:32;;;;;;;11.40;7.50;;;;;;;9.81;100.00;97968.89;110141;1241;68703;-60
2023/10/06 00:25:18;;;;;;;10.10;7.40;;;;;;;9.76;100.00;97969.21;110072;1245;59768;-61
2023/10/06 00:27:51;;;;;;;10.10;6.70;;;;;;;9.74;100.00;97970.89;110191;1244;59677;-60
2023/10/06 00:30:28;;;;;;;10.90;7.10;;;;;;;9.72;100.00;97975.53;110239;1244;71352;-60
2023/10/06 00:33:00;;;;;;;12.80;9.50;;;;;;;9.68;100.00;97977.81;110130;1242;67638;-60
2023/10/06 00:35:35;;;;;;;10.80;7.00;;;;;;;9.64;100.00;97982.98;110063;1245;69290;-60
2023/10/06 00:38:16;;;;;;;10.70;7.30;;;;;;;9.58;100.00;97981.54;110261;1243;59750;-60
2023/10/06 00:40:51;;;;;;;;;;;;;;;9.52;100.00;97987.36;110131;1244;59672;-60
2023/10/06 00:43:37;;;;;;;11.80;7.60;;;;;;;9.43;100.00;97987.86;110118;1244;70550;-60
2023/10/06 00:46:16;;;;;;;11.10;7.40;;;;;;;9.34;100.00;97990.12;110107;1245;69256;-60
2023/10/06 00:48:56;;;;;;;12.00;8.50;;;;;;;9.27;100.00;97989.52;110094;1244;68644;-60
2023/10/06 00:51:31;;;;;;;10.90;8.10;;;;;;;9.20;100.00;97986.09;110041;1244;59700;-60
2023/10/06 00:54:03;;;;;;;9.50;7.90;;;;;;;9.15;100.00;97987.72;110076;1244;59791;-60
2023/10/06 00:56:34;;;;;;;12.80;9.00;;;;;;;9.10;100.00;97987.33;110079;1244;71419;-60
2023/10/06 00:59:05;;;;;;;11.50;8.00;;;;;;;9.04;100.00;97987.70;110118;1244;68483;-60
2023/10/06 01:01:37;;;;;;;9.40;7.90;;;;;;;8.98;100.00;97987.86;110099;1241;67720;-60
2023/10/06 01:04:12;;;;;;;11.50;7.80;;;;;;;8.93;100.00;97989.59;110058;1244;59702;-60
2023/10/06 01:06:45;;;;;;;9.20;7.00;;;;;;;8.87;100.00;97991.98;110066;1243;59689;-60
2023/10/06 01:09:17;;;;;;;10.20;7.60;;;;;;;8.81;100.00;97994.05;110133;1244;70595;-60
2023/10/06 01:11:55;;;;;;;10.70;7.60;;;;;;;8.75;100.00;97996.65;110140;1241;68504;-60
2023/10/06 01:14:34;;;;;;;8.90;6.80;;;;;;;8.68;100.00;97993.23;110154;1244;68671;-59
2023/10/06 01:17:18;;;;;;;9.90;7.60;;;;;;;8.61;100.00;97993.94;110090;1244;59740;-61
2023/10/06 01:19:53;;;;;;;10.90;7.10;;;;;;;8.55;100.00;97992.38;110127;1244;59637;-62
2023/10/06 01:22:28;;;;;;;10.20;7.00;;;;;;;8.49;100.00;97993.38;110097;1242;71241;-62
2023/10/06 01:24:59;;;;;;;9.80;7.10;;;;;;;8.46;100.00;97994.95;110073;1245;69674;-59
2023/10/06 01:27:29;;;;;;;;;;;;;;;8.42;100.00;97997.78;110102;1243;68333;-59
2023/10/06 01:30:17;;;;;;;10.70;7.30;;;;;;;8.37;100.00;98000.66;110113;1244;59712;-60
2023/10/06 01:32:51;;;;;;;9.20;6.80;;;;;;;8.31;100.00;97996.80;110157;1244;59682;-60
2023/10/06 01:35:23;;;;;;;9.70;7.00;;;;;;;8.27;100.00;97997.01;110165;1243;71108;-60
2023/10/06 01:37:59;;;;;;;8.50;6.30;;;;;;;8.23;100.00;98002.95;110149;1244;68572;-60
2023/10/06 01:42:59;;;;;;;;;;;;;;;8.18;100.00;98002.37;110174;1243;59708;-60
2023/10/06 01:45:31;;;;;;;9.70;6.10;;;;;;;8.14;100.00;98004.45;110212;1244;59696;-60
2023/10/06 01:50:48;;;;;;;8.90;6.00;;;;;;;8.09;100.00;98002.98;110153;1242;69228;-60
2023/10/06 01:53:19;;;;;;;8.50;5.80;;;;;;;8.07;100.00;98008.00;110093;1244;68329;-60
2023/10/06 01:55:54;;;;;;;7.60;6.00;;;;;;;8.04;100.00;98011.42;110079;1244;59683;-60
2023/10/06 01:58:26;;;;;;;10.40;7.70;;;;;;;8.02;100.00;98014.48;110150;1244;59650;-61
2023/10/06 02:01:00;;;;;;;11.50;7.50;;;;;;;8.02;100.00;98014.82;110111;1247;70619;-60
2023/10/06 02:03:38;;;;;;;10.10;7.20;;;;;;;8.00;100.00;98013.20;110131;1243;68513;-60
2023/10/06 02:06:13;;;;;;;9.70;6.80;;;;;;;7.98;100.00;98014.70;110145;1243;67515;-60
2023/10/06 02:08:52;;;;;;;12.30;7.80;;;;;;;7.96;100.00;98018.30;110127;1245;59745;-60
2023/10/06 02:11:29;;;;;;;12.60;7.70;;;;;;;7.93;100.00;98019.50;110077;1244;59672;-60
2023/10/06 02:14:04;;;;;;;;;;;;;;;7.89;100.00;98018.98;110106;1245;71395;-60
2023/10/06 02:16:41;;;;;;;11.40;8.30;;;;;;;7.84;100.00;98018.38;110066;1244;69507;-60
2023/10/06 02:19:16;;;;;;;8.90;6.50;;;;;;;7.81;100.00;98021.65;110084;1245;68553;-60
2023/10/06 02:21:51;;;;;;;11.20;8.20;;;;;;;7.78;100.00;98025.11;110143;1243;59697;-60
2023/10/06 02:24:23;;;;;;;11.10;8.00;;;;;;;7.73;100.00;98029.92;110054;1242;59752;-60
2023/10/06 02:27:02;;;;;;;10.20;7.50;;;;;;;7.68;100.00;98031.17;109973;1244;70654;-60
2023/10/06 02:29:36;;;;;;;12.30;8.40;;;;;;;7.61;100.00;98030.33;110015;1246;69060;-59
2023/10/06 02:32:08;;;;;;;9.80;7.50;;;;;;;7.56;100.00;98029.70;110111;1244;69294;-60
2023/10/06 02:34:40;;;;;;;11.40;7.90;;;;;;;7.51;100.00;98033.60;110145;1243;59660;-60
2023/10/06 02:37:12;;;;;;;11.00;8.30;;;;;;;7.48;100.00;98033.25;110112;1244;60046;-60
2023/10/06 02:39:43;;;;;;;11.70;8.70;;;;;;;7.46;100.00;98030.06;110126;1242;71821;-60
2023/10/06 02:42:19;;;;;;;12.00;8.70;;;;;;;7.44;100.00;98029.11;110182;1241;69280;-60
2023/10/06 02:44:54;;;;;;;11.70;8.20;;;;;;;7.41;100.00;98031.70;110152;1241;68502;-60
2023/10/06 02:47:27;;;;;;;15.40;9.80;;;;;;;7.36;100.00;98031.91;110149;1243;59789;-60
2023/10/06 02:50:07;;;;;;;12.50;9.60;;;;;;;7.32;100.00;98032.52;110152;1241;59754;-60
2023/10/06 02:52:42;;;;;;;17.70;12.10;;;;;;;7.27;100.00;98032.20;110126;1244;71415;-60
2023/10/06 02:55:19;;;;;;;14.80;10.20;;;;;;;7.23;100.00;98036.08;110132;1245;69255;-60
2023/10/06 02:57:51;;;;;;;13.60;9.00;;;;;;;7.19;100.00;98033.83;110130;1244;69223;-60
2023/10/06 03:02:56;;;;;;;10.00;7.80;;;;;;;7.12;100.00;98032.27;110151;1244;59747;-60
2023/10/06 03:05:33;;;;;;;11.50;8.30;;;;;;;7.09;100.00;98031.73;110114;1244;71792;-60
2023/10/06 03:08:09;;;;;;;11.30;7.10;;;;;;;7.06;100.00;98029.59;110185;1244;69069;-60
2023/10/06 03:10:43;;;;;;;9.50;7.30;;;;;;;7.03;100.00;98029.03;110097;1243;69170;-60
2023/10/06 03:13:42;;;;;;;9.20;6.90;;;;;;;7.00;100.00;98033.16;110146;1243;59706;-60
2023/10/06 03:16:15;;;;;;;10.40;6.40;;;;;;;6.95;100.00;98027.57;110116;1245;59817;-60
2023/10/06 03:18:52;;;;;;;10.20;6.90;;;;;;;6.92;100.00;98028.23;110116;1244;71384;-61
2023/10/06 03:21:23;;;;;;;9.60;7.10;;;;;;;6.88;100.00;98029.09;110082;1245;69216;-60
2023/10/06 03:24:05;;;;;;;12.40;8.50;;;;;;;6.86;100.00;98029.38;110121;1251;69313;-60
2023/10/06 03:26:44;;;;;;;12.00;9.10;;;;;;;6.83;100.00;98027.73;110198;1244;59735;-60
2023/10/06 03:29:28;;;;;;;9.50;6.90;;;;;;;6.80;100.00;98026.71;110112;1245;59695;-60
2023/10/06 03:31:59;;;;;;;10.50;7.60;;;;;;;6.77;100.00;98025.64;110136;1242;71200;-60
2023/10/06 03:34:31;;;;;;;9.30;7.00;;;;;;;6.75;100.00;98034.20;110117;1245;69120;-60
2023/10/06 03:37:04;;;;;;;10.00;7.40;;;;;;;6.74;100.00;98034.98;110112;1242;69273;-60
2023/10/06 03:39:47;;;;;;;11.10;7.10;;;;;;;6.72;100.00;98042.34;110147;1244;59732;-58
2023/10/06 03:42:20;;;;;;;10.70;8.30;;;;;;;6.69;100.00;98039.73;110182;1244;59642;-59
2023/10/06 03:45:05;;;;;;;11.40;7.90;;;;;;;6.67;100.00;98038.78;110193;1243;69620;-60
2023/10/06 03:47:35;;;;;;;9.10;6.80;;;;;;;6.64;100.00;98033.52;110199;1245;68663;-61
2023/10/06 03:50:08;;;;;;;8.00;6.90;;;;;;;6.61;100.00;98033.85;110137;1243;69537;-61
2023/10/06 03:52:38;;;;;;;14.00;9.40;;;;;;;6.60;100.00;98038.73;110140;1244;59828;-60
2023/10/06 03:55:12;;;;;;;10.80;7.90;;;;;;;6.57;100.00;98039.57;110203;1242;59670;-61
2023/10/06 03:57:42;;;;;;;9.00;7.50;;;;;;;6.53;100.00;98039.21;110174;1244;71520;-61
2023/10/06 04:00:19;;;;;;;11.10;7.70;;;;;;;6.51;100.00;98039.67;110130;1244;69356;-61
2023/10/06 04:02:49;;;;;;;11.10;8.10;;;;;;;6.48;100.00;98046.41;110023;1243;69270;-59
2023/10/06 04:05:21;;;;;;;10.70;7.90;;;;;;;6.46;100.00;98043.18;110102;1243;59753;-61
2023/10/06 04:07:51;;;;;;;13.60;8.90;;;;;;;6.44;100.00;98044.15;110125;1244;59723;-61
2023/10/06 04:10:27;;;;;;;12.40;8.80;;;;;;;6.42;100.00;98043.56;110073;1241;70674;-60
2023/10/06 04:12:57;;;;;;;10.80;8.00;;;;;;;6.40;100.00;98047.12;110118;1242;68558;-60
2023/10/06 04:15:28;;;;;;;9.20;7.00;;;;;;;6.37;100.00;98048.80;110046;1243;69313;-60
2023/10/06 04:17:57;;;;;;;11.80;7.50;;;;;;;6.34;100.00;98044.97;110114;1245;59750;-60
2023/10/06 04:20:28;;;;;;;10.90;7.50;;;;;;;6.34;100.00;98047.05;110141;1244;59693;-60
2023/10/06 04:23:02;;;;;;;11.60;7.00;;;;;;;6.35;100.00;98046.45;110090;1244;71902;-61
2023/10/06 04:25:37;;;;;;;9.60;6.80;;;;;;;6.33;100.00;98048.80;110147;1244;69276;-60
2023/10/06 04:28:16;;;;;;;8.80;6.80;;;;;;;6.31;100.00;98044.41;110172;1243;69347;-60
2023/10/06 04:30:46;;;;;;;9.60;6.10;;;;;;;6.28;100.00;98042.46;110305;1241;60554;-60
2023/10/06 04:33:21;;;;;;;10.60;8.20;;;;;;;6.26;100.00;98046.90;110055;1244;59649;-61
2023/10/06 04:35:59;;;;;;;13.10;8.40;;;;;;;6.22;100.00;98047.56;110083;1244;71199;-60
2023/10/06 04:38:29;;;;;;;11.00;7.40;;;;;;;6.20;100.00;98050.46;110106;1244;69259;-61
2023/10/06 04:40:59;;;;;;;9.90;7.80;;;;;;;6.19;100.00;98050.48;110204;1244;69969;-61
2023/10/06 04:43:29;;;;;;;;;;;;;;;6.19;100.00;98052.23;110082;1244;59738;-61
2023/10/06 04:45:59;;;;;;;;;;;;;;;6.19;100.00;98054.45;110172;1244;59746;-62
2023/10/06 04:48:29;;;;;;;11.50;7.20;;;;;;;6.15;100.00;98067.83;110149;1243;71336;-61
2023/10/06 04:51:02;;;;;;;8.60;5.90;;;;;;;6.11;100.00;98070.91;110114;1244;69729;-60
2023/10/06 04:53:36;;;;;;;9.80;6.90;;;;;;;6.12;100.00;98080.58;110153;1244;69922;-59
2023/10/06 04:56:08;;;;;;;9.80;6.50;;;;;;;6.12;100.00;98083.31;110166;1245;59696;-59
2023/10/06 04:58:39;;;;;;;11.90;7.70;;;;;;;6.21;100.00;98089.89;110230;1244;59697;-59
2023/10/06 05:01:10;;;;;;;12.90;9.30;;;;;;;6.29;100.00;98091.94;110111;1243;71950;-61
2023/10/06 05:03:43;;;;;;;9.50;7.10;;;;;;;6.36;100.00;98091.96;110192;1244;68365;-61
2023/10/06 05:06:16;;;;;;;8.50;5.90;;;;;;;6.44;100.00;98095.25;110187;1244;69294;-61
2023/10/06 05:08:48;;;;;;;7.00;5.60;;;;;;;6.53;100.00;98100.34;110188;1245;59670;-61
2023/10/06 05:11:20;;;;;;;12.20;7.80;;;;;;;6.61;100.00;98102.43;110136;1244;59674;-59
2023/10/06 05:13:52;;;;;;;10.10;7.40;;;;;;;6.71;100.00;98104.89;110298;1241;70474;-60
2023/10/06 05:16:27;;;;;;;10.60;7.90;;;;;;;6.85;100.00;98106.84;110218;1244;68853;-59
2023/10/06 05:18:56;;;;;;;10.10;6.90;;;;;;;7.05;100.00;98107.30;110131;1241;68307;-59
2023/10/06 05:21:27;;;;;;;7.40;6.10;;;;;;;7.30;100.00;98110.45;110130;1244;60053;-59
2023/10/06 05:23:56;;;;;;;9.90;6.90;;;;;;;7.59;100.00;98112.11;110139;1243;59795;-60
2023/10/06 05:26:27;;;;;;;9.80;7.60;;;;;;;7.92;100.00;98116.02;110146;1244;71961;-61
2023/10/06 05:28:57;;;;;;;11.30;7.90;;;;;;;8.16;100.00;98121.89;110254;1242;69192;-61
2023/10/06 05:31:26;;;;;;;9.30;7.00;;;;;;;8.42;100.00;98119.35;110237;1243;69913;-61
2023/10/06 05:33:56;;;;;;;10.30;7.80;;;;;;;8.69;100.00;98124.86;110256;1242;59747;-60
2023/10/06 05:36:26;;;;;;;;;;;;;;;8.98;100.00;98125.91;110290;1240;59680;-60
2023/10/06 05:38:55;;;;;;;8.20;6.60;;;;;;;9.23;100.00;98124.48;110275;1242;71231;-60
2023/10/06 05:41:34;;;;;;;8.30;6.70;;;;;;;9.50;100.00;98129.28;110197;1242;68861;-60
2023/10/06 05:44:05;;;;;;;11.50;8.50;;;;;;;9.76;100.00;98132.80;110221;1240;69102;-61
2023/10/06 05:46:35;;;;;;;13.60;9.30;;;;;;;10.01;100.00;98133.94;110204;1240;59722;-61
2023/10/06 05:49:08;;;;;;;10.80;8.00;;;;;;;10.32;100.00;98134.56;110261;1242;59691;-60
2023/10/06 05:51:39;;;;;;;12.50;9.10;;;;;;;10.66;100.00;98131.14;110319;1240;70834;-60
2023/10/06 05:54:12;;;;;;;11.90;9.50;;;;;;;10.89;100.00;98130.41;110257;1244;69220;-62
2023/10/06 05:56:45;;;;;;;14.40;11.30;;;;;;;11.10;100.00;98136.76;110274;1242;69716;-60
2023/10/06 05:59:18;;;;;;;14.50;11.90;;;;;;;11.23;100.00;98136.77;110122;1244;59803;-60
2023/10/06 06:02:00;;;;;;;15.60;11.00;;;;;;;11.18;100.00;98138.28;110108;1244;59742;-62
2023/10/06 06:04:30;;;;;;;14.60;10.40;;;;;;;11.27;99.28;98141.23;110109;1244;71986;-60
2023/10/06 06:07:02;;;;;;;24.20;14.10;;;;;;;11.25;98.82;98144.33;110083;1244;69307;-60
2023/10/06 06:09:33;;;;;;;18.20;13.00;;;;;;;11.26;99.15;98146.69;110058;1243;68746;-60
2023/10/06 06:12:03;;;;;;;15.30;10.50;;;;;;;11.29;99.66;98146.02;110045;1244;59702;-60
2023/10/06 06:14:33;;;;;;;;;;;;;;;11.52;97.15;98143.44;110106;1244;59751;-61
2023/10/06 06:17:02;;;;;;;15.70;11.20;;;;;;;11.61;96.64;98146.52;110090;1244;71351;-61
2023/10/06 06:19:32;;;;;;;11.20;9.70;;;;;;;11.84;95.44;98147.49;110097;1242;69979;-61
2023/10/06 06:22:05;;;;;;;13.60;10.20;;;;;;;12.05;95.88;98145.58;110084;1245;69298;-61
2023/10/06 06:24:37;;;;;;;10.80;8.60;;;;;;;12.42;95.63;98147.10;110058;1244;59692;-61
2023/10/06 06:27:09;;;;;;;12.10;9.20;;;;;;;12.65;92.73;98146.32;110068;1243;59702;-61
2023/10/06 06:29:39;;;;;;;13.00;9.40;;;;;;;12.96;93.39;98151.51;110070;1244;71244;-60
2023/10/06 06:32:11;;;;;;;11.60;9.10;;;;;;;13.39;90.29;98151.14;110091;1244;69299;-60
2023/10/06 06:34:41;;;;;;;12.30;8.50;;;;;;;13.76;87.53;98150.35;110081;1243;69205;-60
2023/10/06 06:37:12;;;;;;;9.40;8.10;;;;;;;14.16;84.78;98154.33;110050;1244;59684;-62
2023/10/06 06:39:44;;;;;;;8.70;6.60;;;;;;;14.69;86.36;98163.45;109831;1246;59729;-62
2023/10/06 06:42:14;;;;;;;9.90;7.60;;;;;;;15.13;80.72;98157.84;110023;1245;71410;-60
2023/10/06 06:44:47;;;;;;;10.50;7.90;;;;;;;15.60;80.35;98152.02;109762;1245;69862;-60
2023/10/06 06:47:17;;;;;;;10.60;6.50;;;;;;;16.08;79.79;98156.34;110071;1244;69849;-60
2023/10/06 06:49:48;;;;;;;8.90;6.50;;;;;;;16.36;72.57;98156.23;109912;1244;59747;-60
2023/10/06 06:52:21;;;;;;;8.70;6.90;;;;;;;16.69;74.36;98158.88;109778;1245;59699;-60
2023/10/06 06:54:51;;;;;;;10.90;7.30;;;;;;;17.06;75.54;98163.42;110101;1244;71402;-60
2023/10/06 06:57:21;;;;;;;9.10;6.90;;;;;;;17.44;72.75;98163.27;110074;1244;69211;-60
2023/10/06 06:59:52;;;;;;;9.90;6.80;;;;;;;17.80;72.31;98163.38;110130;1244;68280;-60
2023/10/06 07:02:22;;;;;;;8.30;7.10;;;;;;;17.79;65.67;98162.66;110139;1244;59686;-60
2023/10/06 07:04:52;;;;;;;8.20;6.10;;;;;;;18.18;70.48;98171.02;110306;1243;59676;-60
2023/10/06 07:07:22;;;;;;;9.40;7.80;;;;;;;18.50;67.71;98170.97;110167;1245;71230;-61
2023/10/06 07:09:52;;;;;;;9.30;6.80;;;;;;;18.76;66.91;98164.23;110172;1244;68409;-61
2023/10/06 07:12:23;;;;;;;8.90;6.30;;;;;;;18.86;67.14;98163.55;110161;1244;69276;-60
2023/10/06 07:14:52;;;;;;;8.50;6.50;;;;;;;19.00;66.11;98156.23;110085;1243;59747;-60
2023/10/06 07:17:23;;;;;;;8.00;5.70;;;;;;;19.15;64.45;98150.98;110120;1241;59751;-60
2023/10/06 07:19:52;;;;;;;7.10;5.30;;;;;;;19.25;63.38;98150.18;110146;1244;72241;-60
2023/10/06 07:22:26;;;;;;;8.40;5.00;;;;;;;19.49;63.45;98147.58;110072;1244;69618;-61
2023/10/06 07:24:56;;;;;;;8.80;5.00;;;;;;;19.54;60.91;98147.55;110047;1244;69874;-62
2023/10/06 07:27:25;;;;;;;6.80;4.70;;;;;;;19.74;60.25;98147.96;110104;1244;59699;-60
2023/10/06 07:29:57;;;;;;;7.30;5.00;;;;;;;19.84;58.65;98147.66;110154;1244;59690;-60
2023/10/06 07:32:27;;;;;;;8.20;5.50;;;;;;;19.74;55.29;98148.07;110156;1244;72279;-60
2023/10/06 07:34:57;;;;;;;7.00;4.50;;;;;;;19.64;55.58;98148.69;110215;1245;69284;-60
2023/10/06 07:37:26;;;;;;;9.20;5.50;;;;;;;19.30;55.70;98152.95;110152;1241;69274;-59
2023/10/06 07:39:56;;;;;;;7.50;4.50;;;;;;;19.65;56.26;98151.61;110107;1241;59747;-61
2023/10/06 07:42:26;;;;;;;4.60;2.90;;;;;;;19.79;56.21;98153.95;110141;1243;59659;-58
2023/10/06 07:44:57;;;;;;;5.80;3.20;;;;;;;19.76;50.13;98150.15;110214;1244;71451;-63
2023/10/06 07:47:31;;;;;;;5.40;3.50;;;;;;;19.88;51.08;98154.20;110155;1251;68820;-62
2023/10/06 07:50:02;;;;;;;5.00;3.20;;;;;;;20.09;51.80;98157.16;110144;1243;69193;-60
2023/10/06 07:52:33;;;;;;;4.50;2.40;;;;;;;20.11;49.79;98158.02;110132;1243;59764;-60
2023/10/06 07:55:09;;;;;;;4.80;3.40;;;;;;;20.09;48.40;98155.38;110126;1241;59735;-61
2023/10/06 07:57:47;;;;;;;4.60;2.80;;;;;;;20.25;49.32;98158.55;110143;1243;71960;-61
2023/10/06 08:00:29;;;;;;;6.60;2.80;;;;;;;20.50;50.78;98164.89;110132;1244;69714;-60
2023/10/06 08:03:00;;;;;;;3.70;2.50;;;;;;;20.72;47.29;98164.45;110144;1243;69882;-61
2023/10/06 08:05:30;;;;;;;4.90;3.20;;;;;;;20.95;49.01;98157.27;110143;1244;59769;-61
2023/10/06 08:07:59;;;;;;;6.00;2.90;;;;;;;21.08;48.57;98159.52;110158;1243;59712;-61
2023/10/06 08:10:30;;;;;;;4.10;2.70;;;;;;;20.94;48.08;98163.26;110104;1241;71693;-59
2023/10/06 08:13:03;;;;;;;4.60;3.50;;;;;;;20.89;48.41;98162.55;110108;1241;69245;-60
2023/10/06 08:15:35;;;;;;;3.80;2.80;;;;;;;20.91;47.18;98168.75;110139;1244;69351;-62
2023/10/06 08:18:06;;;;;;;4.50;2.80;;;;;;;20.89;47.01;98165.90;110097;1244;59736;-62
2023/10/06 08:20:35;;;;;;;6.40;3.90;;;;;;;20.87;47.76;98172.33;110115;1242;59710;-62
2023/10/06 08:23:06;;;;;;;;;;;;;;;20.71;47.76;98167.89;110105;1243;72107;-62
2023/10/06 08:25:36;;;;;;;5.50;3.40;;;;;;;20.73;48.44;98168.96;110116;1244;70198;-62
2023/10/06 08:28:26;;;;;;;;;;;;;;;20.72;48.18;98170.52;110140;1245;69445;-62
2023/10/06 08:30:55;;;;;;;6.90;3.50;;;;;;;20.34;48.28;98169.98;110141;1244;59679;-60
2023/10/06 08:33:27;;;;;;;;;;;;;;;20.06;47.75;98171.06;110100;1246;59622;-60
2023/10/06 08:36:00;;;;;;;5.60;3.40;;;;;;;19.83;48.26;98168.60;110108;1245;71920;-61
2023/10/06 08:38:32;;;;;;;6.50;4.50;;;;;;;19.90;49.34;98170.22;110116;1244;69238;-61
2023/10/06 08:41:03;;;;;;;5.70;4.20;;;;;;;20.22;50.53;98170.60;110103;1245;69313;-60
2023/10/06 08:43:38;;;;;;;5.40;3.80;;;;;;;20.51;50.07;98168.87;110141;1244;59681;-58
2023/10/06 08:46:07;;;;;;;5.80;4.40;;;;;;;20.66;48.60;98166.15;110108;1243;59750;-61
2023/10/06 08:48:40;;;;;;;6.00;4.30;;;;;;;20.85;47.47;98167.87;110110;1242;71976;-61
2023/10/06 08:51:14;;;;;;;6.80;4.50;;;;;;;21.08;47.11;98174.18;110150;1244;69818;-60
2023/10/06 08:53:46;;;;;;;6.30;4.50;;;;;;;21.40;47.01;98177.29;110155;1245;69937;-60
2023/10/06 08:56:15;;;;;;;6.00;3.90;;;;;;;21.30;46.49;98175.52;110144;1242;59810;-60
2023/10/06 08:58:45;;;;;;;4.60;3.60;;;;;;;21.10;47.09;98171.71;110208;1241;59685;-61
2023/10/06 09:01:18;;;;;;;4.80;3.80;;;;;;;20.90;47.36;98179.59;110093;1241;71974;-60
2023/10/06 09:03:49;;;;;;;5.50;4.20;;;;;;;20.68;47.59;98179.05;110110;1243;69257;-61
2023/10/06 09:06:19;;;;;;;7.20;3.70;;;;;;;20.44;47.53;98179.33;110073;1241;68700;-60
2023/10/06 09:08:50;;;;;;;4.50;3.30;;;;;;;20.36;48.18;98178.88;109553;1246;750843;-61
2023/10/06 09:11:39;;;;;;;5.10;3.70;;;;;;;20.57;48.00;98177.70;110167;1241;59631;-61
2023/10/06 09:14:13;;;;;;;6.30;5.10;;;;;;;20.72;46.52;98177.76;110188;1244;71385;-61
2023/10/06 09:16:50;;;;;;;6.80;4.70;;;;;;;20.19;46.72;98174.73;110141;1244;69643;-60
2023/10/06 09:19:22;;;;;;;5.70;4.30;;;;;;;20.45;47.14;98178.19;110101;1244;68649;-61
2023/10/06 09:22:01;;;;;;;6.10;4.30;;;;;;;20.70;47.02;98177.27;110103;1245;59766;-61
2023/10/06 09:24:31;;;;;;;6.60;4.80;;;;;;;21.02;46.86;98178.91;110110;1244;59809;-60
2023/10/06 09:27:19;;;;;;;6.00;4.10;;;;;;;21.51;46.19;98179.53;110147;1241;71360;-60
2023/10/06 09:29:59;;;;;;;6.40;4.30;;;;;;;21.67;45.41;98174.40;110150;1244;70103;-60
2023/10/06 09:32:30;;;;;;;7.50;3.90;;;;;;;21.81;44.28;98169.02;110085;1245;68501;-60
2023/10/06 09:35:22;;;;;;;5.90;4.00;;;;;;;21.55;44.71;98178.58;110087;1245;59747;-60
2023/10/06 09:37:51;;;;;;;3.70;3.00;;;;;;;21.62;44.21;98181.11;110096;1241;60107;-60
2023/10/06 09:40:22;;;;;;;4.50;3.00;;;;;;;22.10;42.77;98181.70;110083;1246;71480;-60
2023/10/06 09:42:52;;;;;;;4.50;3.40;;;;;;;22.55;43.14;98179.23;110114;1245;69244;-60
2023/10/06 09:45:23;;;;;;;6.00;4.00;;;;;;;22.97;41.86;98179.04;110119;1242;68688;-60
2023/10/06 09:47:56;;;;;;;5.80;3.70;;;;;;;23.16;40.80;98178.33;110106;1245;59721;-60
2023/10/06 09:50:28;;;;;;;5.10;3.90;;;;;;;23.55;41.85;98176.84;110156;1241;59707;-60
2023/10/06 09:53:03;;;;;;;5.80;3.50;;;;;;;23.52;40.24;98180.02;110166;1241;72386;-60
2023/10/06 09:55:35;;;;;;;5.60;3.50;;;;;;;23.74;40.72;98177.18;110077;1242;69510;-60
2023/10/06 09:58:05;;;;;;;5.00;2.80;;;;;;;23.72;39.52;98179.77;110113;1244;70023;-60
2023/10/06 10:00:39;;;;;;;5.50;3.30;;;;;;;23.40;39.06;98184.29;110130;1245;59747;-60
2023/10/06 10:03:12;;;;;;;3.30;2.50;;;;;;;23.51;39.45;98180.46;110128;1245;59729;-60
2023/10/06 10:05:42;;;;;;;4.60;3.00;;;;;;;24.01;39.69;98179.25;110114;1252;71432;-60
2023/10/06 10:08:13;;;;;;;5.10;3.40;;;;;;;24.24;38.44;98178.96;110130;1242;69247;-60
2023/10/06 10:10:47;;;;;;;5.20;2.80;;;;;;;24.29;39.92;98173.17;110093;1247;69426;-60
2023/10/06 10:13:31;;;;;;;4.30;2.80;;;;;;;25.02;39.43;98174.75;110108;1245;59687;-61
2023/10/06 10:16:11;;;;;;;4.40;2.60;;;;;;;25.30;37.00;98168.29;110113;1245;59653;-60
2023/10/06 10:18:49;;;;;;;4.50;3.00;;;;;;;25.35;36.59;98162.04;110124;1251;71374;-60
2023/10/06 10:21:26;;;;;;;5.50;2.80;;;;;;;25.37;36.05;98168.30;110079;1245;68526;-59
2023/10/06 10:23:56;;;;;;;5.00;2.70;;;;;;;24.76;37.28;98167.38;110159;1241;69250;-60
2023/10/06 10:26:50;;;;;;;5.60;2.50;;;;;;;25.12;36.01;98166.04;110131;1246;59762;-61
2023/10/06 10:29:19;;;;;;;5.30;2.80;;;;;;;25.11;36.70;98157.62;110184;1241;59755;-61
2023/10/06 10:32:01;;;;;;;5.30;3.00;;;;;;;24.88;37.26;98154.69;110142;1244;71297;-61
2023/10/06 10:34:33;;;;;;;3.80;2.20;;;;;;;25.15;37.28;98154.84;110121;1245;68444;-62
2023/10/06 10:37:05;;;;;;;4.10;2.70;;;;;;;25.26;36.61;98147.07;110129;1243;67580;-60
2023/10/06 10:39:50;;;;;;;4.10;3.00;;;;;;;25.00;35.74;98147.81;110143;1245;59762;-60
2023/10/06 10:42:37;;;;;;;4.90;3.10;;;;;;;24.94;36.67;98146.27;110140;1243;59697;-61
2023/10/06 10:45:44;;;;;;;4.80;2.40;;;;;;;24.79;36.59;98146.10;110137;1244;71397;-61
2023/10/06 10:48:15;;;;;;;3.20;2.40;;;;;;;24.73;37.20;98140.80;110152;1245;69417;-59
2023/10/06 10:50:57;;;;;;;4.10;2.70;;;;;;;25.39;36.61;98136.73;110109;1245;69090;-60
2023/10/06 10:53:29;;;;;;;3.70;2.40;;;;;;;25.56;35.13;98131.08;110147;1241;59706;-60
2023/10/06 10:55:59;;;;;;;3.40;2.20;;;;;;;25.17;35.25;98133.37;110180;1244;59666;-60
2023/10/06 10:58:44;;;;;;;4.70;2.50;;;;;;;25.02;35.38;98131.64;110347;1241;71377;-60
2023/10/06 11:01:34;;;;;;;4.20;2.10;;;;;;;25.02;36.44;98132.79;110263;1242;69847;-62
2023/10/06 11:04:54;;;;;;;4.40;2.60;;;;;;;24.62;35.98;98131.55;110274;1243;69864;-59
2023/10/06 11:07:11;;;;;;;4.30;2.80;;;;;;;23.44;37.18;98124.32;110221;1243;59751;-61
2023/10/06 11:09:41;;;;;;;3.90;2.60;;;;;;;23.24;37.33;98125.90;110321;1241;59668;-60
2023/10/06 11:12:16;;;;;;;3.80;2.40;;;;;;;22.32;39.17;98126.42;110278;1242;72511;-59
2023/10/06 11:14:50;;;;;;;;;;;;;;;22.70;39.06;98124.72;110304;1242;69818;-60
2023/10/06 11:17:24;;;;;;;3.40;2.30;;;;;;;22.83;38.65;98124.15;110331;1242;68700;-61
2023/10/06 11:20:15;;;;;;;5.70;3.20;;;;;;;22.59;38.85;98126.27;110357;1241;60154;-61
2023/10/06 11:22:59;;;;;;;3.40;2.10;;;;;;;22.16;39.22;98125.79;110353;1242;59690;-62
2023/10/06 11:25:32;;;;;;;4.00;2.40;;;;;;;22.61;38.51;98131.21;110371;1242;71809;-62
2023/10/06 11:28:12;;;;;;;5.10;2.80;;;;;;;22.65;38.22;98131.05;110366;1240;69281;-60
2023/10/06 11:30:43;;;;;;;3.80;2.70;;;;;;;21.92;39.47;98128.29;110314;1242;69295;-60
2023/10/06 11:33:13;;;;;;;4.00;2.20;;;;;;;22.35;39.04;98126.55;110237;1242;59670;-60
2023/10/06 11:35:45;;;;;;;4.50;2.30;;;;;;;22.57;38.96;98127.21;110276;1242;59740;-61
2023/10/06 11:38:15;;;;;;;3.90;2.40;;;;;;;22.01;39.14;98126.92;110232;1241;70943;-61
2023/10/06 11:40:45;;;;;;;5.00;2.40;;;;;;;22.40;39.46;98129.77;110396;1242;69276;-61
2023/10/06 11:43:21;;;;;;;4.10;2.30;;;;;;;22.64;39.43;98130.16;110385;1241;68716;-61
2023/10/06 11:46:02;;;;;;;3.30;2.20;;;;;;;22.73;39.30;98133.45;110355;1242;59681;-61
2023/10/06 11:48:35;;;;;;;3.10;2.10;;;;;;;22.79;39.06;98126.98;110240;1243;59680;-61
2023/10/06 11:51:07;;;;;;;4.90;2.80;;;;;;;22.45;39.45;98127.83;110247;1241;70762;-59
2023/10/06 11:53:40;;;;;;;5.50;2.90;;;;;;;22.52;38.67;98127.05;110318;1242;69829;-62
2023/10/06 11:56:12;;;;;;;3.70;2.70;;;;;;;22.11;38.81;98125.52;110329;1240;69271;-61
2023/10/06 11:58:44;;;;;;;4.80;3.20;;;;;;;22.08;39.18;98121.53;110304;1242;59760;-60
2023/10/06 12:01:34;;;;;;;4.80;3.10;;;;;;;21.75;39.82;98117.11;110264;1241;59725;-61
2023/10/06 12:04:08;;;;;;;3.70;2.20;;;;;;;21.94;40.32;98114.93;110351;1242;71969;-60
2023/10/06 12:06:42;;;;;;;4.60;2.40;;;;;;;22.24;39.77;98113.11;110319;1243;69812;-60